sensor_id;sensor_type;location;lat;lon;timestamp;pressure;altitude;pressure_sealevel;temperature;humidity
68107;BME280;54892;47.488;19.026;2023-02-17T00:02:23;100920.53;;;1.70;86.92
68107;BME280;54892;47.488;19.026;2023-02-17T00:05:26;100911.81;;;1.86;86.47
68107;BME280;54892;47.488;19.026;2023-02-17T00:08:31;100915.34;;;1.93;85.52
68107;BME280;54892;47.488;19.026;2023-02-17T00:11:34;100911.34;;;1.82;86.05
68107;BME280;54892;47.488;19.026;2023-02-17T00:14:37;100918.94;;;1.69;86.83
68107;BME280;54892;47.488;19.026;2023-02-17T00:17:42;100910.25;;;1.77;86.81
68107;BME280;54892;47.488;19.026;2023-02-17T00:20:45;100918.06;;;1.77;86.66
68107;BME280;54892;47.488;19.026;2023-02-17T00:23:48;100907.22;;;1.65;87.48
68107;BME280;54892;47.488;19.026;2023-02-17T00:26:52;100911.66;;;1.64;87.68
68107;BME280;54892;47.488;19.026;2023-02-17T00:29:55;100911.00;;;1.62;88.28
68107;BME280;54892;47.488;19.026;2023-02-17T00:32:59;100906.44;;;1.64;88.07
68107;BME280;54892;47.488;19.026;2023-02-17T00:36:03;100897.69;;;1.80;86.65
68107;BME280;54892;47.488;19.026;2023-02-17T00:39:07;100903.19;;;1.62;87.92
68107;BME280;54892;47.488;19.026;2023-02-17T00:42:10;100903.53;;;1.59;87.96
68107;BME280;54892;47.488;19.026;2023-02-17T00:45:13;100903.19;;;1.62;87.81
68107;BME280;54892;47.488;19.026;2023-02-17T00:48:18;100900.56;;;1.71;87.41
68107;BME280;54892;47.488;19.026;2023-02-17T00:51:22;100908.50;;;1.69;88.02
68107;BME280;54892;47.488;19.026;2023-02-17T00:54:26;100908.37;;;1.71;87.99
68107;BME280;54892;47.488;19.026;2023-02-17T00:57:29;100915.47;;;1.77;88.30
68107;BME280;54892;47.488;19.026;2023-02-17T01:00:33;100911.09;;;1.92;87.64
68107;BME280;54892;47.488;19.026;2023-02-17T01:03:37;100916.38;;;2.07;87.25
68107;BME280;54892;47.488;19.026;2023-02-17T01:06:42;100895.78;;;1.97;87.63
68107;BME280;54892;47.488;19.026;2023-02-17T01:09:46;100897.41;;;1.98;87.24
68107;BME280;54892;47.488;19.026;2023-02-17T01:12:49;100896.00;;;2.11;86.74
68107;BME280;54892;47.488;19.026;2023-02-17T01:15:52;100895.56;;;2.22;87.41
68107;BME280;54892;47.488;19.026;2023-02-17T01:18:57;100895.16;;;2.10;87.73
68107;BME280;54892;47.488;19.026;2023-02-17T01:22:00;100893.38;;;2.11;87.06
68107;BME280;54892;47.488;19.026;2023-02-17T01:25:03;100899.91;;;2.07;87.50
68107;BME280;54892;47.488;19.026;2023-02-17T01:28:07;100896.00;;;2.11;87.36
68107;BME280;54892;47.488;19.026;2023-02-17T01:31:10;100886.09;;;2.06;87.76
68107;BME280;54892;47.488;19.026;2023-02-17T01:34:15;100879.28;;;2.05;87.49
68107;BME280;54892;47.488;19.026;2023-02-17T01:37:18;100887.84;;;2.14;87.06
68107;BME280;54892;47.488;19.026;2023-02-17T01:40:21;100883.22;;;2.01;87.42
68107;BME280;54892;47.488;19.026;2023-02-17T01:43:24;100873.53;;;2.10;87.25
68107;BME280;54892;47.488;19.026;2023-02-17T01:46:27;100880.56;;;2.09;87.82
68107;BME280;54892;47.488;19.026;2023-02-17T01:49:35;100880.38;;;2.11;87.65
68107;BME280;54892;47.488;19.026;2023-02-17T01:52:40;100868.53;;;2.08;87.52
68107;BME280;54892;47.488;19.026;2023-02-17T01:55:43;100862.88;;;2.20;87.06
68107;BME280;54892;47.488;19.026;2023-02-17T01:58:48;100863.31;;;2.08;87.72
68107;BME280;54892;47.488;19.026;2023-02-17T02:01:53;100864.28;;;2.07;88.02
68107;BME280;54892;47.488;19.026;2023-02-17T02:05:00;100859.97;;;2.15;88.32
68107;BME280;54892;47.488;19.026;2023-02-17T02:08:03;100852.19;;;2.30;87.34
68107;BME280;54892;47.488;19.026;2023-02-17T02:11:06;100859.28;;;2.21;87.00
68107;BME280;54892;47.488;19.026;2023-02-17T02:14:09;100868.22;;;2.03;87.33
68107;BME280;54892;47.488;19.026;2023-02-17T02:17:16;100858.25;;;2.07;87.16
68107;BME280;54892;47.488;19.026;2023-02-17T02:23:49;100848.28;;;2.10;87.17
68107;BME280;54892;47.488;19.026;2023-02-17T02:27:04;100848.31;;;2.25;87.07
68107;BME280;54892;47.488;19.026;2023-02-17T02:30:20;100853.41;;;2.04;87.81
68107;BME280;54892;47.488;19.026;2023-02-17T02:33:28;100848.03;;;2.20;87.45
68107;BME280;54892;47.488;19.026;2023-02-17T02:36:36;100844.44;;;2.21;87.25
68107;BME280;54892;47.488;19.026;2023-02-17T02:39:41;100839.16;;;2.15;86.53
68107;BME280;54892;47.488;19.026;2023-02-17T02:42:46;100837.44;;;2.07;86.14
68107;BME280;54892;47.488;19.026;2023-02-17T02:45:49;100840.91;;;1.99;86.99
68107;BME280;54892;47.488;19.026;2023-02-17T02:48:54;100831.13;;;2.01;86.82
68107;BME280;54892;47.488;19.026;2023-02-17T02:51:58;100828.19;;;2.04;86.33
68107;BME280;54892;47.488;19.026;2023-02-17T02:55:05;100844.50;;;1.83;87.55
68107;BME280;54892;47.488;19.026;2023-02-17T02:58:14;100843.50;;;1.84;87.45
68107;BME280;54892;47.488;19.026;2023-02-17T03:01:21;100841.81;;;1.91;87.18
68107;BME280;54892;47.488;19.026;2023-02-17T03:04:29;100835.50;;;1.86;87.74
68107;BME280;54892;47.488;19.026;2023-02-17T03:07:37;100834.34;;;1.88;87.14
68107;BME280;54892;47.488;19.026;2023-02-17T03:10:43;100838.66;;;1.81;87.83
68107;BME280;54892;47.488;19.026;2023-02-17T03:13:47;100833.66;;;1.94;87.82
68107;BME280;54892;47.488;19.026;2023-02-17T03:16:50;100831.47;;;1.83;87.83
68107;BME280;54892;47.488;19.026;2023-02-17T03:19:55;100844.50;;;1.83;87.82
68107;BME280;54892;47.488;19.026;2023-02-17T03:22:57;100857.22;;;1.78;87.66
68107;BME280;54892;47.488;19.026;2023-02-17T03:26:01;100857.03;;;1.79;87.41
68107;BME280;54892;47.488;19.026;2023-02-17T03:29:04;100856.91;;;1.73;87.66
68107;BME280;54892;47.488;19.026;2023-02-17T03:32:07;100849.69;;;1.83;87.43
68107;BME280;54892;47.488;19.026;2023-02-17T03:35:12;100849.25;;;1.94;86.87
68107;BME280;54892;47.488;19.026;2023-02-17T03:38:15;100846.50;;;2.11;85.91
68107;BME280;54892;47.488;19.026;2023-02-17T03:41:17;100859.09;;;2.07;86.22
68107;BME280;54892;47.488;19.026;2023-02-17T03:44:20;100868.47;;;1.93;86.67
68107;BME280;54892;47.488;19.026;2023-02-17T03:47:23;100862.91;;;1.96;86.15
68107;BME280;54892;47.488;19.026;2023-02-17T03:50:28;100858.75;;;1.87;86.36
68107;BME280;54892;47.488;19.026;2023-02-17T03:53:30;100865.19;;;2.00;86.07
68107;BME280;54892;47.488;19.026;2023-02-17T03:56:34;100854.91;;;1.83;86.67
68107;BME280;54892;47.488;19.026;2023-02-17T03:59:37;100858.25;;;2.07;85.97
68107;BME280;54892;47.488;19.026;2023-02-17T04:02:40;100851.34;;;1.99;86.24
68107;BME280;54892;47.488;19.026;2023-02-17T04:05:46;100847.84;;;2.07;85.90
68107;BME280;54892;47.488;19.026;2023-02-17T04:08:49;100843.47;;;2.07;85.27
68107;BME280;54892;47.488;19.026;2023-02-17T04:11:52;100841.50;;;2.24;84.62
68107;BME280;54892;47.488;19.026;2023-02-17T04:14:55;100846.69;;;2.09;85.17
68107;BME280;54892;47.488;19.026;2023-02-17T04:17:58;100854.56;;;2.01;85.75
68107;BME280;54892;47.488;19.026;2023-02-17T04:21:04;100858.59;;;1.89;85.99
68107;BME280;54892;47.488;19.026;2023-02-17T04:24:08;100849.06;;;1.96;85.68
68107;BME280;54892;47.488;19.026;2023-02-17T04:27:11;100849.50;;;1.85;85.93
68107;BME280;54892;47.488;19.026;2023-02-17T04:30:14;100846.56;;;1.88;85.80
68107;BME280;54892;47.488;19.026;2023-02-17T04:33:18;100842.19;;;2.03;85.03
68107;BME280;54892;47.488;19.026;2023-02-17T04:36:23;100830.94;;;2.03;85.04
68107;BME280;54892;47.488;19.026;2023-02-17T04:39:27;100838.75;;;1.88;85.99
68107;BME280;54892;47.488;19.026;2023-02-17T04:42:30;100846.09;;;1.84;86.46
68107;BME280;54892;47.488;19.026;2023-02-17T04:45:33;100849.16;;;1.88;86.50
68107;BME280;54892;47.488;19.026;2023-02-17T04:48:36;100851.31;;;1.84;86.59
68107;BME280;54892;47.488;19.026;2023-02-17T04:51:41;100849.41;;;1.78;86.89
68107;BME280;54892;47.488;19.026;2023-02-17T04:54:44;100843.97;;;1.88;86.50
68107;BME280;54892;47.488;19.026;2023-02-17T04:57:47;100835.16;;;1.89;85.91
68107;BME280;54892;47.488;19.026;2023-02-17T05:00:50;100838.66;;;1.81;86.69
68107;BME280;54892;47.488;19.026;2023-02-17T05:03:53;100853.38;;;1.89;86.35
68107;BME280;54892;47.488;19.026;2023-02-17T05:06:57;100846.03;;;1.92;86.51
68107;BME280;54892;47.488;19.026;2023-02-17T05:10:01;100841.38;;;2.03;85.91
68107;BME280;54892;47.488;19.026;2023-02-17T05:13:04;100844.06;;;1.94;86.08
68107;BME280;54892;47.488;19.026;2023-02-17T05:16:07;100850.72;;;2.12;85.54
68107;BME280;54892;47.488;19.026;2023-02-17T05:19:11;100848.66;;;2.22;85.18
68107;BME280;54892;47.488;19.026;2023-02-17T05:22:15;100841.31;;;2.11;85.58
68107;BME280;54892;47.488;19.026;2023-02-17T05:25:18;100840.13;;;2.13;85.76
68107;BME280;54892;47.488;19.026;2023-02-17T05:28:21;100841.31;;;2.11;86.19
68107;BME280;54892;47.488;19.026;2023-02-17T05:31:24;100844.72;;;2.26;85.41
68107;BME280;54892;47.488;19.026;2023-02-17T05:34:29;100836.19;;;2.18;86.21
68107;BME280;54892;47.488;19.026;2023-02-17T05:37:33;100839.88;;;2.23;86.17
68107;BME280;54892;47.488;19.026;2023-02-17T05:40:36;100846.63;;;2.33;85.84
68107;BME280;54892;47.488;19.026;2023-02-17T05:43:39;100841.50;;;2.39;85.56
68107;BME280;54892;47.488;19.026;2023-02-17T05:46:42;100831.53;;;2.43;85.34
68107;BME280;54892;47.488;19.026;2023-02-17T05:49:45;100843.19;;;2.77;83.38
68107;BME280;54892;47.488;19.026;2023-02-17T05:52:49;100850.37;;;2.75;83.62
68107;BME280;54892;47.488;19.026;2023-02-17T05:55:53;100846.72;;;2.69;83.39
68107;BME280;54892;47.488;19.026;2023-02-17T05:58:56;100851.09;;;2.69;83.96
68107;BME280;54892;47.488;19.026;2023-02-17T06:02:01;100850.66;;;2.80;83.55
68107;BME280;54892;47.488;19.026;2023-02-17T06:05:04;100849.19;;;2.78;84.07
68107;BME280;54892;47.488;19.026;2023-02-17T06:08:09;100849.47;;;2.83;83.71
68107;BME280;54892;47.488;19.026;2023-02-17T06:11:12;100847.66;;;2.83;83.69
68107;BME280;54892;47.488;19.026;2023-02-17T06:14:15;100849.53;;;2.89;83.71
68107;BME280;54892;47.488;19.026;2023-02-17T06:17:18;100842.53;;;2.90;83.66
68107;BME280;54892;47.488;19.026;2023-02-17T06:20:21;100849.97;;;2.93;83.46
68107;BME280;54892;47.488;19.026;2023-02-17T06:23:26;100847.44;;;3.00;83.30
68107;BME280;54892;47.488;19.026;2023-02-17T06:26:30;100865.06;;;2.98;83.75
68107;BME280;54892;47.488;19.026;2023-02-17T06:29:33;100862.38;;;3.06;83.67
68107;BME280;54892;47.488;19.026;2023-02-17T06:32:36;100871.06;;;3.13;83.19
68107;BME280;54892;47.488;19.026;2023-02-17T06:35:39;100868.34;;;3.22;82.69
68107;BME280;54892;47.488;19.026;2023-02-17T06:38:43;100864.41;;;3.26;82.34
68107;BME280;54892;47.488;19.026;2023-02-17T06:41:47;100868.19;;;3.45;81.27
68107;BME280;54892;47.488;19.026;2023-02-17T06:44:50;100859.81;;;3.49;80.89
68107;BME280;54892;47.488;19.026;2023-02-17T06:47:53;100864.56;;;3.68;80.07
68107;BME280;54892;47.488;19.026;2023-02-17T06:50:55;100864.09;;;3.57;80.55
68107;BME280;54892;47.488;19.026;2023-02-17T06:54:00;100868.53;;;3.85;79.48
68107;BME280;54892;47.488;19.026;2023-02-17T06:57:03;100867.91;;;4.05;78.75
68107;BME280;54892;47.488;19.026;2023-02-17T07:00:06;100862.00;;;3.96;80.10
68107;BME280;54892;47.488;19.026;2023-02-17T07:03:10;100866.22;;;4.25;79.58
68107;BME280;54892;47.488;19.026;2023-02-17T07:06:12;100863.84;;;4.31;78.73
68107;BME280;54892;47.488;19.026;2023-02-17T07:09:17;100871.28;;;4.34;78.59
68107;BME280;54892;47.488;19.026;2023-02-17T07:12:20;100870.84;;;4.59;76.94
68107;BME280;54892;47.488;19.026;2023-02-17T07:15:24;100868.19;;;4.52;77.30
68107;BME280;54892;47.488;19.026;2023-02-17T07:18:27;100870.47;;;4.68;76.68
68107;BME280;54892;47.488;19.026;2023-02-17T07:21:30;100872.53;;;4.73;77.10
68107;BME280;54892;47.488;19.026;2023-02-17T07:24:35;100869.72;;;4.81;77.66
68107;BME280;54892;47.488;19.026;2023-02-17T07:27:38;100864.28;;;4.76;78.30
68107;BME280;54892;47.488;19.026;2023-02-17T07:30:41;100868.94;;;4.81;77.49
68107;BME280;54892;47.488;19.026;2023-02-17T07:33:44;100865.78;;;4.99;77.04
68107;BME280;54892;47.488;19.026;2023-02-17T07:36:49;100863.78;;;5.01;77.27
68107;BME280;54892;47.488;19.026;2023-02-17T07:39:54;100860.16;;;5.02;77.55
68107;BME280;54892;47.488;19.026;2023-02-17T07:42:57;100868.03;;;5.09;77.60
68107;BME280;54892;47.488;19.026;2023-02-17T07:46:01;100862.81;;;5.15;77.39
68107;BME280;54892;47.488;19.026;2023-02-17T07:49:04;100871.53;;;5.36;76.72
68107;BME280;54892;47.488;19.026;2023-02-17T07:52:08;100852.81;;;5.53;75.59
68107;BME280;54892;47.488;19.026;2023-02-17T07:55:12;100848.59;;;5.58;74.16
68107;BME280;54892;47.488;19.026;2023-02-17T07:58:15;100847.78;;;5.64;73.90
68107;BME280;54892;47.488;19.026;2023-02-17T08:01:19;100849.38;;;5.72;73.95
68107;BME280;54892;47.488;19.026;2023-02-17T08:04:23;100846.97;;;5.84;73.62
68107;BME280;54892;47.488;19.026;2023-02-17T08:07:26;100844.16;;;5.99;72.07
68107;BME280;54892;47.488;19.026;2023-02-17T08:10:31;100848.19;;;6.15;71.76
68107;BME280;54892;47.488;19.026;2023-02-17T08:13:51;100846.50;;;6.41;71.43
68107;BME280;54892;47.488;19.026;2023-02-17T08:16:55;100848.50;;;6.59;68.41
68107;BME280;54892;47.488;19.026;2023-02-17T08:19:59;100849.75;;;6.89;65.57
68107;BME280;54892;47.488;19.026;2023-02-17T08:23:09;100856.66;;;7.22;63.46
68107;BME280;54892;47.488;19.026;2023-02-17T08:26:13;100862.00;;;7.72;63.47
68107;BME280;54892;47.488;19.026;2023-02-17T08:29:20;100868.56;;;8.07;62.72
68107;BME280;54892;47.488;19.026;2023-02-17T08:32:23;100873.97;;;8.12;62.17
68107;BME280;54892;47.488;19.026;2023-02-17T08:35:26;100870.19;;;8.27;61.89
68107;BME280;54892;47.488;19.026;2023-02-17T08:38:29;100875.72;;;8.18;62.20
68107;BME280;54892;47.488;19.026;2023-02-17T08:41:35;100869.97;;;8.28;60.79
68107;BME280;54892;47.488;19.026;2023-02-17T08:44:38;100876.56;;;8.19;61.30
68107;BME280;54892;47.488;19.026;2023-02-17T08:47:41;100869.81;;;8.04;61.35
68107;BME280;54892;47.488;19.026;2023-02-17T08:50:45;100867.44;;;7.96;62.21
68107;BME280;54892;47.488;19.026;2023-02-17T08:53:49;100859.22;;;8.11;60.66
68107;BME280;54892;47.488;19.026;2023-02-17T08:56:53;100855.91;;;7.97;62.09
68107;BME280;54892;47.488;19.026;2023-02-17T08:59:57;100860.69;;;8.07;61.16
68107;BME280;54892;47.488;19.026;2023-02-17T09:03:00;100856.38;;;8.13;60.83
68107;BME280;54892;47.488;19.026;2023-02-17T09:06:03;100864.00;;;8.21;61.58
68107;BME280;54892;47.488;19.026;2023-02-17T09:09:08;100866.75;;;8.26;60.92
68107;BME280;54892;47.488;19.026;2023-02-17T09:12:13;100864.13;;;8.45;59.37
68107;BME280;54892;47.488;19.026;2023-02-17T09:15:16;100858.91;;;8.63;59.29
68107;BME280;54892;47.488;19.026;2023-02-17T09:18:19;100854.66;;;8.81;58.32
68107;BME280;54892;47.488;19.026;2023-02-17T09:21:22;100861.72;;;8.80;58.27
68107;BME280;54892;47.488;19.026;2023-02-17T09:24:26;100853.41;;;9.14;58.27
68107;BME280;54892;47.488;19.026;2023-02-17T09:27:30;100854.37;;;9.32;56.17
68107;BME280;54892;47.488;19.026;2023-02-17T09:30:33;100850.28;;;9.48;56.43
68107;BME280;54892;47.488;19.026;2023-02-17T09:33:37;100840.94;;;9.64;54.53
68107;BME280;54892;47.488;19.026;2023-02-17T09:36:40;100843.66;;;9.69;54.79
68107;BME280;54892;47.488;19.026;2023-02-17T09:39:44;100835.44;;;9.77;55.04
68107;BME280;54892;47.488;19.026;2023-02-17T09:42:48;100845.97;;;9.77;55.67
68107;BME280;54892;47.488;19.026;2023-02-17T09:45:52;100854.69;;;9.78;56.07
68107;BME280;54892;47.488;19.026;2023-02-17T09:48:59;100849.28;;;9.84;55.90
68107;BME280;54892;47.488;19.026;2023-02-17T09:52:04;100847.91;;;10.17;53.79
68107;BME280;54892;47.488;19.026;2023-02-17T09:55:12;100845.06;;;10.07;55.28
68107;BME280;54892;47.488;19.026;2023-02-17T09:58:18;100844.00;;;10.32;53.41
68107;BME280;54892;47.488;19.026;2023-02-17T10:01:25;100836.66;;;10.34;53.79
68107;BME280;54892;47.488;19.026;2023-02-17T10:04:32;100842.84;;;10.28;53.74
68107;BME280;54892;47.488;19.026;2023-02-17T10:07:38;100836.56;;;10.17;54.12
68107;BME280;54892;47.488;19.026;2023-02-17T10:10:44;100830.03;;;10.08;54.63
68107;BME280;54892;47.488;19.026;2023-02-17T10:13:51;100827.63;;;10.18;54.00
68107;BME280;54892;47.488;19.026;2023-02-17T10:16:56;100823.06;;;10.01;54.46
68107;BME280;54892;47.488;19.026;2023-02-17T10:20:03;100817.91;;;9.95;54.81
68107;BME280;54892;47.488;19.026;2023-02-17T10:23:09;100811.09;;;10.11;54.03
68107;BME280;54892;47.488;19.026;2023-02-17T10:26:18;100801.72;;;10.15;53.97
68107;BME280;54892;47.488;19.026;2023-02-17T10:29:29;100793.22;;;10.13;54.34
68107;BME280;54892;47.488;19.026;2023-02-17T10:32:37;100793.53;;;10.16;54.64
68107;BME280;54892;47.488;19.026;2023-02-17T10:35:50;100788.00;;;10.30;53.98
68107;BME280;54892;47.488;19.026;2023-02-17T10:38:55;100790.00;;;10.23;54.59
68107;BME280;54892;47.488;19.026;2023-02-17T10:42:02;100783.78;;;10.41;54.39
68107;BME280;54892;47.488;19.026;2023-02-17T10:45:10;100788.81;;;10.30;55.26
68107;BME280;54892;47.488;19.026;2023-02-17T10:48:17;100779.44;;;10.23;55.82
68107;BME280;54892;47.488;19.026;2023-02-17T10:51:21;100785.19;;;10.19;56.75
68107;BME280;54892;47.488;19.026;2023-02-17T10:54:28;100775.91;;;10.05;57.87
68107;BME280;54892;47.488;19.026;2023-02-17T10:57:34;100772.69;;;10.15;57.77
68107;BME280;54892;47.488;19.026;2023-02-17T11:00:41;100770.53;;;10.00;58.41
68107;BME280;54892;47.488;19.026;2023-02-17T11:03:45;100768.56;;;10.07;58.15
68107;BME280;54892;47.488;19.026;2023-02-17T11:06:49;100759.59;;;10.20;56.96
68107;BME280;54892;47.488;19.026;2023-02-17T11:09:55;100764.09;;;10.08;57.42
68107;BME280;54892;47.488;19.026;2023-02-17T11:12:59;100753.62;;;10.25;56.75
68107;BME280;54892;47.488;19.026;2023-02-17T11:16:05;100751.81;;;10.13;57.66
68107;BME280;54892;47.488;19.026;2023-02-17T11:19:17;100755.56;;;10.29;57.67
68107;BME280;54892;47.488;19.026;2023-02-17T11:22:26;100750.19;;;10.12;58.14
68107;BME280;54892;47.488;19.026;2023-02-17T11:25:32;100740.38;;;10.36;56.89
68107;BME280;54892;47.488;19.026;2023-02-17T11:28:36;100728.13;;;10.30;56.29
68107;BME280;54892;47.488;19.026;2023-02-17T11:31:40;100734.19;;;10.43;55.74
68107;BME280;54892;47.488;19.026;2023-02-17T11:34:54;100729.97;;;10.42;55.47
68107;BME280;54892;47.488;19.026;2023-02-17T11:38:01;100731.00;;;10.41;55.06
68107;BME280;54892;47.488;19.026;2023-02-17T11:41:05;100717.44;;;10.49;54.66
68107;BME280;54892;47.488;19.026;2023-02-17T11:44:09;100713.59;;;10.57;55.13
68107;BME280;54892;47.488;19.026;2023-02-17T11:47:15;100719.94;;;10.56;56.06
68107;BME280;54892;47.488;19.026;2023-02-17T11:50:25;100717.56;;;10.71;56.05
68107;BME280;54892;47.488;19.026;2023-02-17T11:53:46;100713.94;;;10.77;56.08
68107;BME280;54892;47.488;19.026;2023-02-17T11:56:56;100714.59;;;10.85;55.67
68107;BME280;54892;47.488;19.026;2023-02-17T12:00:12;100703.94;;;10.79;55.69
68107;BME280;54892;47.488;19.026;2023-02-17T12:03:23;100705.25;;;10.77;55.93
68107;BME280;54892;47.488;19.026;2023-02-17T12:06:32;100704.72;;;10.63;56.08
68107;BME280;54892;47.488;19.026;2023-02-17T12:09:41;100704.41;;;10.59;56.31
68107;BME280;54892;47.488;19.026;2023-02-17T12:13:01;100697.09;;;10.49;56.68
68107;BME280;54892;47.488;19.026;2023-02-17T12:16:09;100688.41;;;10.49;56.54
68107;BME280;54892;47.488;19.026;2023-02-17T12:19:22;100673.75;;;10.41;56.96
68107;BME280;54892;47.488;19.026;2023-02-17T12:22:31;100676.94;;;10.43;56.97
68107;BME280;54892;47.488;19.026;2023-02-17T12:25:38;100676.56;;;10.51;56.58
68107;BME280;54892;47.488;19.026;2023-02-17T12:28:47;100662.78;;;10.49;57.21
68107;BME280;54892;47.488;19.026;2023-02-17T12:32:06;100658.25;;;10.33;58.18
68107;BME280;54892;47.488;19.026;2023-02-17T12:35:15;100656.06;;;10.42;57.97
68107;BME280;54892;47.488;19.026;2023-02-17T12:38:23;100651.25;;;10.39;58.32
68107;BME280;54892;47.488;19.026;2023-02-17T12:41:27;100664.66;;;10.37;59.23
68107;BME280;54892;47.488;19.026;2023-02-17T12:44:33;100654.34;;;10.64;58.23
68107;BME280;54892;47.488;19.026;2023-02-17T12:47:41;100656.84;;;10.71;58.32
68107;BME280;54892;47.488;19.026;2023-02-17T12:50:53;100657.22;;;10.80;58.87
68107;BME280;54892;47.488;19.026;2023-02-17T12:53:59;100656.97;;;10.99;58.38
68107;BME280;54892;47.488;19.026;2023-02-17T12:57:16;100657.31;;;11.02;58.78
68107;BME280;54892;47.488;19.026;2023-02-17T13:00:21;100663.69;;;11.06;59.02
68107;BME280;54892;47.488;19.026;2023-02-17T13:03:27;100664.34;;;11.14;59.01
68107;BME280;54892;47.488;19.026;2023-02-17T13:06:33;100653.75;;;11.14;58.69
68107;BME280;54892;47.488;19.026;2023-02-17T13:09:38;100654.25;;;11.10;59.12
68107;BME280;54892;47.488;19.026;2023-02-17T13:12:42;100661.59;;;11.08;59.31
68107;BME280;54892;47.488;19.026;2023-02-17T13:16:03;100651.53;;;11.05;59.29
68107;BME280;54892;47.488;19.026;2023-02-17T13:19:07;100651.78;;;11.04;59.64
68107;BME280;54892;47.488;19.026;2023-02-17T13:22:20;100658.81;;;10.98;60.97
68107;BME280;54892;47.488;19.026;2023-02-17T13:25:27;100653.38;;;10.88;61.98
68107;BME280;54892;47.488;19.026;2023-02-17T13:28:33;100664.03;;;10.76;63.61
68107;BME280;54892;47.488;19.026;2023-02-17T13:31:50;100657.41;;;10.73;64.26
68107;BME280;54892;47.488;19.026;2023-02-17T13:34:58;100665.31;;;10.73;65.17
68107;BME280;54892;47.488;19.026;2023-02-17T13:38:03;100658.19;;;10.74;65.12
68107;BME280;54892;47.488;19.026;2023-02-17T13:41:06;100648.75;;;10.78;66.00
68107;BME280;54892;47.488;19.026;2023-02-17T13:44:17;100652.00;;;10.85;65.67
68107;BME280;54892;47.488;19.026;2023-02-17T13:47:23;100644.75;;;10.92;66.16
68107;BME280;54892;47.488;19.026;2023-02-17T13:50:32;100640.41;;;11.03;65.63
68107;BME280;54892;47.488;19.026;2023-02-17T13:53:36;100639.81;;;11.18;63.95
68107;BME280;54892;47.488;19.026;2023-02-17T13:56:40;100633.44;;;10.97;65.12
68107;BME280;54892;47.488;19.026;2023-02-17T13:59:43;100627.59;;;11.12;64.02
68107;BME280;54892;47.488;19.026;2023-02-17T14:02:47;100624.53;;;11.20;63.96
68107;BME280;54892;47.488;19.026;2023-02-17T14:05:51;100615.47;;;11.16;64.02
68107;BME280;54892;47.488;19.026;2023-02-17T14:08:56;100616.84;;;11.19;64.44
68107;BME280;54892;47.488;19.026;2023-02-17T14:12:00;100616.00;;;11.13;64.80
68107;BME280;54892;47.488;19.026;2023-02-17T14:15:04;100608.56;;;11.32;63.52
68107;BME280;54892;47.488;19.026;2023-02-17T14:18:23;100608.78;;;11.08;64.54
68107;BME280;54892;47.488;19.026;2023-02-17T14:21:28;100608.84;;;11.14;64.94
68107;BME280;54892;47.488;19.026;2023-02-17T14:24:34;100606.56;;;11.00;65.52
68107;BME280;54892;47.488;19.026;2023-02-17T14:27:41;100604.66;;;10.95;65.80
68107;BME280;54892;47.488;19.026;2023-02-17T14:30:45;100608.31;;;10.94;65.49
68107;BME280;54892;47.488;19.026;2023-02-17T14:33:57;100600.16;;;10.96;66.12
68107;BME280;54892;47.488;19.026;2023-02-17T14:37:07;100603.09;;;11.00;65.87
68107;BME280;54892;47.488;19.026;2023-02-17T14:40:15;100602.87;;;10.84;66.73
68107;BME280;54892;47.488;19.026;2023-02-17T14:43:18;100604.00;;;10.88;67.02
68107;BME280;54892;47.488;19.026;2023-02-17T14:46:21;100603.03;;;10.94;66.84
68107;BME280;54892;47.488;19.026;2023-02-17T14:49:24;100592.31;;;10.84;67.28
68107;BME280;54892;47.488;19.026;2023-02-17T14:52:28;100591.06;;;10.87;67.67
68107;BME280;54892;47.488;19.026;2023-02-17T14:55:33;100601.69;;;10.75;68.30
68107;BME280;54892;47.488;19.026;2023-02-17T14:58:39;100600.34;;;10.72;67.99
68107;BME280;54892;47.488;19.026;2023-02-17T15:01:42;100596.16;;;10.76;67.37
68107;BME280;54892;47.488;19.026;2023-02-17T15:04:45;100589.13;;;10.65;67.68
68107;BME280;54892;47.488;19.026;2023-02-17T15:07:49;100574.28;;;10.59;67.94
68107;BME280;54892;47.488;19.026;2023-02-17T15:10:54;100569.94;;;10.70;67.46
68107;BME280;54892;47.488;19.026;2023-02-17T15:13:58;100565.69;;;10.69;67.38
68107;BME280;54892;47.488;19.026;2023-02-17T15:17:02;100560.50;;;10.74;67.55
68107;BME280;54892;47.488;19.026;2023-02-17T15:20:06;100564.25;;;10.61;67.91
68107;BME280;54892;47.488;19.026;2023-02-17T15:23:11;100565.78;;;10.57;68.25
68107;BME280;54892;47.488;19.026;2023-02-17T15:26:17;100550.34;;;10.48;68.49
68107;BME280;54892;47.488;19.026;2023-02-17T15:29:21;100550.38;;;10.36;68.74
68107;BME280;54892;47.488;19.026;2023-02-17T15:32:25;100549.06;;;10.51;68.23
68107;BME280;54892;47.488;19.026;2023-02-17T15:35:29;100548.78;;;10.35;68.69
68107;BME280;54892;47.488;19.026;2023-02-17T15:38:32;100547.22;;;10.51;68.19
68107;BME280;54892;47.488;19.026;2023-02-17T15:41:37;100545.28;;;10.30;68.61
68107;BME280;54892;47.488;19.026;2023-02-17T15:44:41;100531.13;;;10.36;68.73
68107;BME280;54892;47.488;19.026;2023-02-17T15:47:46;100541.38;;;10.32;68.79
68107;BME280;54892;47.488;19.026;2023-02-17T15:50:49;100553.03;;;10.19;69.11
68107;BME280;54892;47.488;19.026;2023-02-17T15:53:53;100553.75;;;10.15;69.28
68107;BME280;54892;47.488;19.026;2023-02-17T15:57:00;100561.19;;;10.18;69.28
68107;BME280;54892;47.488;19.026;2023-02-17T16:00:05;100566.63;;;10.11;69.49
68107;BME280;54892;47.488;19.026;2023-02-17T16:03:18;100564.44;;;10.08;69.76
68107;BME280;54892;47.488;19.026;2023-02-17T16:06:23;100564.94;;;10.22;69.42